createdAt,value
2022-11-26T00:01:20.615Z,81.07
2022-11-26T00:03:49.116Z,77.57
2022-11-26T00:06:28.456Z,79.00
2022-11-26T00:08:56.525Z,89.97
2022-11-26T00:11:24.516Z,87.07
2022-11-26T00:13:52.229Z,81.32
2022-11-26T00:16:20.540Z,84.72
2022-11-26T00:18:48.270Z,85.80
2022-11-26T00:21:19.171Z,85.82
2022-11-26T00:23:48.433Z,84.22
2022-11-26T00:26:19.306Z,80.88
2022-11-26T00:28:51.420Z,84.53
2022-11-26T00:33:47.331Z,74.45
2022-11-26T00:36:19.778Z,88.63
2022-11-26T00:38:54.647Z,95.97
2022-11-26T00:41:24.805Z,92.78
2022-11-26T00:43:52.820Z,95.97
2022-11-26T00:46:22.976Z,83.60
2022-11-26T00:48:51.908Z,89.18
2022-11-26T00:51:23.795Z,78.95
2022-11-26T00:53:54.543Z,60.97
2022-11-26T00:56:23.550Z,57.45
2022-11-26T00:58:51.819Z,52.75
2022-11-26T01:01:23.184Z,56.63
2022-11-26T01:03:51.479Z,46.22
2022-11-26T01:06:22.095Z,49.08
2022-11-26T01:08:49.804Z,48.53
2022-11-26T01:11:21.724Z,49.47
2022-11-26T01:13:51.729Z,45.00
2022-11-26T01:16:22.790Z,36.45
2022-11-26T01:18:52.381Z,44.67
2022-11-26T01:21:21.889Z,46.10
2022-11-26T01:23:49.963Z,45.17
2022-11-26T01:26:23.466Z,48.20
2022-11-26T01:28:51.361Z,42.55
2022-11-26T01:31:22.077Z,51.60
2022-11-26T01:33:49.935Z,49.85
2022-11-26T01:36:26.816Z,44.33
2022-11-26T01:38:55.261Z,45.13
2022-11-26T01:41:39.526Z,46.00
2022-11-26T01:44:15.071Z,49.95
2022-11-26T01:46:43.665Z,43.90
2022-11-26T01:49:20.316Z,53.17
2022-11-26T01:51:51.732Z,55.05
2022-11-26T01:54:19.602Z,53.22
2022-11-26T01:56:52.567Z,52.80
2022-11-26T01:59:25.455Z,51.63
2022-11-26T02:01:56.491Z,48.95
2022-11-26T02:04:27.307Z,49.30
2022-11-26T02:06:57.887Z,46.10
2022-11-26T02:09:27.261Z,46.38
2022-11-26T02:11:56.979Z,51.25
2022-11-26T02:14:27.951Z,47.83
2022-11-26T02:17:17.307Z,48.58
2022-11-26T02:20:25.881Z,43.03
2022-11-26T02:23:14.375Z,47.90
2022-11-26T02:26:02.108Z,44.30
2022-11-26T02:28:56.283Z,43.78
2022-11-26T02:31:30.860Z,45.65
2022-11-26T02:34:11.859Z,47.40
2022-11-26T02:36:44.539Z,42.88
2022-11-26T02:39:14.534Z,49.63
2022-11-26T02:41:43.739Z,46.92
2022-11-26T02:44:12.224Z,49.53
2022-11-26T02:46:43.156Z,53.13
2022-11-26T02:49:13.304Z,44.92
2022-11-26T02:51:42.532Z,52.40
2022-11-26T02:54:12.372Z,53.42
2022-11-26T02:56:41.331Z,49.65
2022-11-26T02:59:10.095Z,52.72
2022-11-26T03:01:42.801Z,55.22
2022-11-26T03:04:17.784Z,48.50
2022-11-26T03:06:46.482Z,53.67
2022-11-26T03:09:16.886Z,56.75
2022-11-26T03:11:45.217Z,54.10
2022-11-26T03:14:13.180Z,56.22
2022-11-26T03:16:42.332Z,57.83
2022-11-26T03:19:10.411Z,55.28
2022-11-26T03:21:38.076Z,56.60
2022-11-26T03:24:06.788Z,49.88
2022-11-26T03:26:34.470Z,51.10
2022-11-26T03:29:02.458Z,47.88
2022-11-26T03:31:30.221Z,48.53
2022-11-26T03:33:59.599Z,47.28
2022-11-26T03:36:27.420Z,63.45
2022-11-26T03:38:55.399Z,45.72
2022-11-26T03:41:23.382Z,50.13
2022-11-26T03:43:51.375Z,52.00
2022-11-26T03:46:19.157Z,60.50
2022-11-26T03:48:47.158Z,57.22
2022-11-26T03:51:16.524Z,73.93
2022-11-26T03:53:44.533Z,84.60
2022-11-26T03:56:12.283Z,87.70
2022-11-26T03:58:40.409Z,86.20
2022-11-26T04:01:09.714Z,75.25
2022-11-26T04:03:37.761Z,80.40
2022-11-26T04:06:07.027Z,89.53
2022-11-26T04:08:36.368Z,107.07
2022-11-26T04:11:04.243Z,109.90
2022-11-26T04:13:32.319Z,93.60
2022-11-26T04:16:00.005Z,92.78
2022-11-26T04:18:27.981Z,85.55
2022-11-26T04:20:55.705Z,87.50
2022-11-26T04:23:23.867Z,79.75
2022-11-26T04:25:52.992Z,71.00
2022-11-26T04:28:20.935Z,78.35
2022-11-26T04:30:48.715Z,88.32
2022-11-26T04:33:17.222Z,66.78
2022-11-26T04:35:45.052Z,76.03
2022-11-26T04:38:13.048Z,79.57
2022-11-26T04:40:40.772Z,75.80
2022-11-26T04:43:10.067Z,117.78
2022-11-26T04:45:37.879Z,71.68
2022-11-26T04:48:06.827Z,80.28
2022-11-26T04:50:34.644Z,84.28
2022-11-26T04:53:02.743Z,84.00
2022-11-26T04:55:30.605Z,62.10
2022-11-26T04:57:58.946Z,50.17
2022-11-26T05:00:28.260Z,51.15
2022-11-26T05:02:56.405Z,40.45
2022-11-26T05:05:24.118Z,52.30
2022-11-26T05:07:52.292Z,47.10
2022-11-26T05:10:20.147Z,47.78
2022-11-26T05:12:48.100Z,43.38
2022-11-26T05:15:15.823Z,45.53
2022-11-26T05:17:45.139Z,43.42
2022-11-26T05:20:14.839Z,40.22
2022-11-26T05:22:43.092Z,47.35
2022-11-26T05:25:11.276Z,50.88
2022-11-26T05:27:39.395Z,44.47
2022-11-26T05:30:08.440Z,39.45
2022-11-26T05:32:36.523Z,40.10
2022-11-26T05:35:06.240Z,37.85
2022-11-26T05:37:34.225Z,40.28
2022-11-26T05:40:01.937Z,39.60
2022-11-26T05:42:30.120Z,34.00
2022-11-26T05:44:57.800Z,33.97
2022-11-26T05:47:25.775Z,36.22
2022-11-26T05:49:53.743Z,37.42
2022-11-26T05:52:23.078Z,35.97
2022-11-26T05:54:50.902Z,39.17
2022-11-26T05:57:20.052Z,37.90
2022-11-26T05:59:48.744Z,34.00
2022-11-26T06:02:16.913Z,38.38
2022-11-26T06:04:45.753Z,34.05
2022-11-26T06:07:13.797Z,36.10
2022-11-26T06:09:42.997Z,31.08
2022-11-26T06:12:11.120Z,46.13
2022-11-26T06:14:42.967Z,87.40
2022-11-26T06:17:11.492Z,56.75
2022-11-26T06:19:39.492Z,47.00
2022-11-26T06:22:07.555Z,50.97
2022-11-26T06:24:35.792Z,45.95
2022-11-26T06:27:05.548Z,45.58
2022-11-26T06:29:33.491Z,70.07
2022-11-26T06:32:01.495Z,61.50
2022-11-26T06:34:29.195Z,75.38
2022-11-26T06:36:57.321Z,68.13
2022-11-26T06:39:25.013Z,252.35
2022-11-26T06:41:53.048Z,193.88
2022-11-26T06:44:22.323Z,80.15
2022-11-26T06:46:50.355Z,63.08
2022-11-26T06:49:18.049Z,104.03
2022-11-26T06:51:46.009Z,74.10
2022-11-26T06:54:13.698Z,88.28
2022-11-26T06:56:41.674Z,93.50
2022-11-26T06:59:09.417Z,92.90
2022-11-26T07:01:39.438Z,67.97
2022-11-26T07:04:07.164Z,60.55
2022-11-26T07:06:35.813Z,54.40
2022-11-26T07:09:06.195Z,55.08
2022-11-26T07:11:34.833Z,55.85
2022-11-26T07:14:02.779Z,58.17
2022-11-26T07:16:31.144Z,63.50
2022-11-26T07:19:02.889Z,63.05
2022-11-26T07:21:31.957Z,58.15
2022-11-26T07:24:00.471Z,55.63
2022-11-26T07:26:28.676Z,50.17
2022-11-26T07:28:56.483Z,57.28
2022-11-26T07:31:24.886Z,70.85
2022-11-26T07:33:53.098Z,55.70
2022-11-26T07:36:24.565Z,65.18
2022-11-26T07:38:54.689Z,55.90
2022-11-26T07:41:23.296Z,59.05
2022-11-26T07:43:51.075Z,56.97
2022-11-26T07:46:21.833Z,55.75
2022-11-26T07:48:50.054Z,57.72
2022-11-26T07:51:20.131Z,54.95
2022-11-26T07:53:49.600Z,57.20
2022-11-26T07:56:18.539Z,54.72
2022-11-26T07:58:46.988Z,58.95
2022-11-26T08:01:16.783Z,55.22
2022-11-26T08:03:47.583Z,44.30
2022-11-26T08:06:20.431Z,50.92
2022-11-26T08:08:49.930Z,45.53
2022-11-26T08:11:19.841Z,50.25
2022-11-26T08:13:48.719Z,54.20
2022-11-26T08:16:16.991Z,47.78
2022-11-26T08:18:44.940Z,47.17
2022-11-26T08:21:13.033Z,57.88
2022-11-26T08:23:40.844Z,56.10
2022-11-26T08:26:34.708Z,50.30
2022-11-26T08:29:01.270Z,50.22
2022-11-26T08:31:29.733Z,83.47
2022-11-26T08:33:58.835Z,65.78
2022-11-26T08:36:27.172Z,62.00
2022-11-26T08:38:55.077Z,55.20
2022-11-26T08:41:24.652Z,57.47
2022-11-26T08:44:08.556Z,53.35
2022-11-26T08:46:37.300Z,57.95
2022-11-26T08:49:06.159Z,68.25
2022-11-26T08:51:34.453Z,68.78
2022-11-26T08:54:02.293Z,66.95
2022-11-26T08:56:31.796Z,77.15
2022-11-26T08:58:59.497Z,80.78
2022-11-26T09:01:29.660Z,77.60
2022-11-26T09:03:59.602Z,83.00
2022-11-26T09:06:29.609Z,91.82
2022-11-26T09:09:17.442Z,86.00
2022-11-26T09:11:49.583Z,83.70
2022-11-26T09:14:20.752Z,77.32
2022-11-26T09:16:48.835Z,79.15
2022-11-26T09:19:17.810Z,82.70
2022-11-26T09:21:46.750Z,76.85
2022-11-26T09:24:15.031Z,66.90
2022-11-26T09:26:43.307Z,73.22
2022-11-26T09:29:14.175Z,62.97
2022-11-26T09:32:01.200Z,69.37
2022-11-26T09:34:30.930Z,69.95
2022-11-26T09:36:58.906Z,68.13
2022-11-26T09:39:27.988Z,63.30
2022-11-26T09:42:04.655Z,65.85
2022-11-26T09:44:47.444Z,63.40
2022-11-26T09:47:19.352Z,69.40
2022-11-26T09:49:58.050Z,69.90
2022-11-26T09:52:31.085Z,71.72
2022-11-26T09:55:06.700Z,71.50
2022-11-26T09:57:41.745Z,66.20
2022-11-26T10:00:23.424Z,69.80
2022-11-26T10:02:53.791Z,73.57
2022-11-26T10:05:25.537Z,88.90
2022-11-26T10:08:03.561Z,90.70
2022-11-26T10:10:38.535Z,91.93
2022-11-26T10:13:20.193Z,103.53
2022-11-26T10:16:01.219Z,102.87
2022-11-26T10:18:41.248Z,109.40
2022-11-26T10:21:27.307Z,118.93
2022-11-26T10:24:15.775Z,125.85
2022-11-26T10:26:44.467Z,130.55
2022-11-26T10:29:24.296Z,140.30
2022-11-26T10:31:59.593Z,133.18
2022-11-26T10:34:39.417Z,135.77
2022-11-26T10:37:07.728Z,129.70
2022-11-26T10:39:35.687Z,121.70
2022-11-26T10:42:06.215Z,129.70
2022-11-26T10:44:40.032Z,135.63
2022-11-26T10:47:27.948Z,130.80
2022-11-26T10:49:58.344Z,144.60
2022-11-26T10:52:29.681Z,145.55
2022-11-26T10:55:11.047Z,146.55
2022-11-26T10:57:44.687Z,151.55
2022-11-26T11:00:38.707Z,140.27
2022-11-26T11:03:17.188Z,143.68
2022-11-26T11:05:45.868Z,141.60
2022-11-26T11:08:15.395Z,140.48
2022-11-26T11:10:55.420Z,149.13
2022-11-26T11:13:25.430Z,133.75
2022-11-26T11:16:02.532Z,141.43
2022-11-26T11:18:32.005Z,142.10
2022-11-26T11:21:03.140Z,150.00
2022-11-26T11:24:00.169Z,126.75
2022-11-26T11:26:23.623Z,128.52
2022-11-26T11:28:53.916Z,119.88
2022-11-26T11:31:24.012Z,99.47
2022-11-26T11:34:11.979Z,112.88
2022-11-26T11:36:40.488Z,120.90
2022-11-26T11:39:29.362Z,102.43
2022-11-26T11:41:59.411Z,39.58
2022-11-26T11:44:32.463Z,59.30
2022-11-26T11:47:32.135Z,61.08
2022-11-26T11:50:14.673Z,53.72
2022-11-26T11:52:54.431Z,79.40
2022-11-26T11:55:29.291Z,55.65
2022-11-26T11:58:22.307Z,59.90
2022-11-26T12:00:55.610Z,52.88
2022-11-26T12:03:42.896Z,70.20
2022-11-26T12:06:26.304Z,50.75
2022-11-26T12:09:04.074Z,47.30
2022-11-26T12:11:43.088Z,58.92
2022-11-26T12:14:17.215Z,59.83
2022-11-26T12:16:48.367Z,47.67
2022-11-26T12:19:23.819Z,50.03
2022-11-26T12:21:58.499Z,46.55
2022-11-26T12:24:36.510Z,52.92
2022-11-26T12:27:09.783Z,47.63
2022-11-26T12:29:42.868Z,54.80
2022-11-26T12:32:17.172Z,49.25
2022-11-26T12:34:49.076Z,52.03
2022-11-26T12:37:21.765Z,50.92
2022-11-26T12:39:57.379Z,92.10
2022-11-26T12:42:31.691Z,54.90
2022-11-26T12:45:17.382Z,54.90
2022-11-26T12:47:52.832Z,47.08
2022-11-26T12:50:27.223Z,60.67
2022-11-26T12:53:04.938Z,54.63
2022-11-26T12:55:36.820Z,52.30
2022-11-26T12:58:12.127Z,47.70
2022-11-26T13:00:40.220Z,65.72
2022-11-26T13:03:15.148Z,49.03
2022-11-26T13:05:55.407Z,53.53
2022-11-26T13:08:37.887Z,53.53
2022-11-26T13:11:21.623Z,55.45
2022-11-26T13:13:54.500Z,50.67
2022-11-26T13:16:34.668Z,52.70
2022-11-26T13:19:08.231Z,58.20
2022-11-26T13:21:48.579Z,52.67
2022-11-26T13:24:32.723Z,51.22
2022-11-26T13:27:23.493Z,48.50
2022-11-26T13:30:10.510Z,45.75
2022-11-26T13:32:58.399Z,53.63
2022-11-26T13:35:46.176Z,48.75
2022-11-26T13:38:21.511Z,49.67
2022-11-26T13:41:32.684Z,55.63
2022-11-26T13:44:25.934Z,53.95
2022-11-26T13:47:00.619Z,58.10
2022-11-26T13:49:36.907Z,63.80
2022-11-26T13:52:11.642Z,65.50
2022-11-26T13:54:46.288Z,64.25
2022-11-26T13:57:19.735Z,56.55
2022-11-26T13:59:49.885Z,55.75
2022-11-26T14:02:44.519Z,61.35
2022-11-26T14:05:15.087Z,66.18
2022-11-26T14:07:43.401Z,66.68
2022-11-26T14:10:42.286Z,70.95
2022-11-26T14:13:17.497Z,80.78
2022-11-26T14:15:55.124Z,80.93
2022-11-26T14:18:58.736Z,95.38
2022-11-26T14:21:28.352Z,85.28
2022-11-26T14:23:58.035Z,93.05
2022-11-26T14:26:34.104Z,88.03
2022-11-26T14:29:12.047Z,102.53
2022-11-26T14:31:43.703Z,95.78
2022-11-26T14:34:16.748Z,98.83
2022-11-26T14:36:56.622Z,106.22
2022-11-26T14:39:25.092Z,104.05
2022-11-26T14:42:02.199Z,99.28
2022-11-26T14:44:34.800Z,102.88
2022-11-26T14:47:10.826Z,107.70
2022-11-26T14:49:40.335Z,100.72
2022-11-26T14:52:18.452Z,102.93
2022-11-26T14:54:48.427Z,103.07
2022-11-26T14:57:22.054Z,101.35
2022-11-26T14:59:58.659Z,95.38
2022-11-26T15:02:29.071Z,112.60
2022-11-26T15:05:02.058Z,116.07
2022-11-26T15:07:31.900Z,113.13
2022-11-26T15:10:05.179Z,119.43
2022-11-26T15:12:35.608Z,114.25
2022-11-26T15:15:05.897Z,104.28
2022-11-26T15:17:35.344Z,105.13
2022-11-26T15:20:07.606Z,97.53
2022-11-26T15:22:39.007Z,96.93
2022-11-26T15:25:16.047Z,92.63
2022-11-26T15:27:53.191Z,94.78
2022-11-26T15:30:25.762Z,86.45
2022-11-26T15:33:04.720Z,88.10
2022-11-26T15:35:33.252Z,94.18
2022-11-26T15:38:01.625Z,191.80
2022-11-26T15:40:32.376Z,91.07
2022-11-26T15:43:03.168Z,94.03
2022-11-26T15:45:36.965Z,89.57
2022-11-26T15:48:07.476Z,91.35
2022-11-26T15:50:38.259Z,97.80
2022-11-26T15:53:14.263Z,92.88
2022-11-26T15:55:47.463Z,87.95
2022-11-26T15:58:22.520Z,89.40
2022-11-26T16:00:54.634Z,85.75
2022-11-26T16:03:42.315Z,90.95
2022-11-26T16:06:27.839Z,90.75
2022-11-26T16:09:02.308Z,90.35
2022-11-26T16:11:31.833Z,86.50
2022-11-26T16:13:59.900Z,84.57
2022-11-26T16:16:28.985Z,82.78
2022-11-26T16:18:59.693Z,88.47
2022-11-26T16:21:30.128Z,84.18
2022-11-26T16:24:00.415Z,84.65
2022-11-26T16:26:28.676Z,94.93
2022-11-26T16:28:56.646Z,95.68
2022-11-26T16:31:24.638Z,93.97
2022-11-26T16:33:54.003Z,98.55
2022-11-26T16:36:25.031Z,112.13
2022-11-26T16:38:53.841Z,119.22
2022-11-26T16:41:23.289Z,118.18
2022-11-26T16:43:51.619Z,110.68
2022-11-26T16:46:23.226Z,115.20
2022-11-26T16:48:52.314Z,100.78
2022-11-26T16:51:22.193Z,100.85
2022-11-26T16:53:50.767Z,97.03
2022-11-26T16:56:22.791Z,105.80
2022-11-26T17:01:19.222Z,104.38
2022-11-26T17:03:47.291Z,106.70
2022-11-26T17:06:19.156Z,113.95
2022-11-26T17:11:36.719Z,121.03
2022-11-26T17:14:04.740Z,101.45
2022-11-26T17:16:32.506Z,103.72
2022-11-26T17:19:00.667Z,117.18
2022-11-26T17:21:28.387Z,119.63
2022-11-26T17:23:57.884Z,120.70
2022-11-26T17:26:26.340Z,129.75
2022-11-26T17:28:54.644Z,117.35
2022-11-26T17:31:22.418Z,122.57
2022-11-26T17:33:51.053Z,121.75
2022-11-26T17:36:21.210Z,131.27
2022-11-26T17:38:49.820Z,151.75
2022-11-26T17:41:19.038Z,143.00
2022-11-26T17:43:47.288Z,162.30
2022-11-26T17:46:20.023Z,164.93
2022-11-26T17:48:49.309Z,181.13
2022-11-26T17:51:18.062Z,187.75
2022-11-26T17:53:46.574Z,178.88
2022-11-26T17:56:20.968Z,257.70
2022-11-26T17:58:49.423Z,352.77
2022-11-26T18:01:18.443Z,577.13
2022-11-26T18:03:46.744Z,287.95
2022-11-26T18:06:19.034Z,362.30
2022-11-26T18:08:47.388Z,423.60
2022-11-26T18:11:16.672Z,268.27
2022-11-26T18:13:46.190Z,251.02
2022-11-26T18:16:13.946Z,222.60
2022-11-26T18:18:41.930Z,205.88
2022-11-26T18:21:09.771Z,202.82
2022-11-26T18:23:37.720Z,223.13
2022-11-26T18:26:05.551Z,181.38
2022-11-26T18:28:33.796Z,185.25
2022-11-26T18:31:02.893Z,182.68
2022-11-26T18:33:30.860Z,171.73
2022-11-26T18:35:58.519Z,189.43
2022-11-26T18:38:28.978Z,167.57
2022-11-26T18:41:02.107Z,162.18
2022-11-26T18:43:30.331Z,148.90
2022-11-26T18:45:58.158Z,150.82
2022-11-26T18:48:27.495Z,144.82
2022-11-26T18:50:58.533Z,163.15
2022-11-26T18:53:28.414Z,142.10
2022-11-26T18:55:56.829Z,141.88
2022-11-26T18:58:25.487Z,130.50
2022-11-26T19:00:58.292Z,132.75
2022-11-26T19:03:28.262Z,130.25
2022-11-26T19:05:56.438Z,105.05
2022-11-26T19:08:25.109Z,110.40
2022-11-26T19:10:52.832Z,119.85
2022-11-26T19:13:21.266Z,99.72
2022-11-26T19:15:49.529Z,82.72
2022-11-26T19:18:17.664Z,88.88
2022-11-26T19:20:51.208Z,80.05
2022-11-26T19:23:24.181Z,87.88
2022-11-26T19:25:52.017Z,75.85
2022-11-26T19:28:19.999Z,83.15
2022-11-26T19:30:58.582Z,88.15
2022-11-26T19:33:26.755Z,92.95
2022-11-26T19:35:56.037Z,77.38
2022-11-26T19:38:24.328Z,76.90
2022-11-26T19:40:57.062Z,72.85
2022-11-26T19:43:26.103Z,72.75
2022-11-26T19:46:01.522Z,72.70
2022-11-26T19:48:29.652Z,75.60
2022-11-26T19:50:58.709Z,74.25
2022-11-26T19:53:26.959Z,71.75
2022-11-26T19:55:59.803Z,79.65
2022-11-26T19:58:28.322Z,86.93
2022-11-26T20:00:56.094Z,90.38
2022-11-26T20:03:24.936Z,89.35
2022-11-26T20:05:53.187Z,102.93
2022-11-26T20:08:22.511Z,99.43
2022-11-26T20:10:50.328Z,101.75
2022-11-26T20:13:18.370Z,104.65
2022-11-26T20:15:47.394Z,110.75
2022-11-26T20:18:16.120Z,113.30
2022-11-26T20:20:43.840Z,120.97
2022-11-26T20:23:11.886Z,114.43
2022-11-26T20:25:40.923Z,111.97
2022-11-26T20:28:09.938Z,119.55
2022-11-26T20:30:38.531Z,115.78
2022-11-26T20:33:07.088Z,117.07
2022-11-26T20:35:34.891Z,124.90
2022-11-26T20:38:02.865Z,117.18
2022-11-26T20:40:30.568Z,117.03
2022-11-26T20:42:59.972Z,123.65
2022-11-26T20:45:27.749Z,122.65
2022-11-26T20:47:57.267Z,121.35
2022-11-26T20:50:25.537Z,118.10
2022-11-26T20:52:53.712Z,131.38
2022-11-26T20:55:21.964Z,124.40
2022-11-26T20:57:51.367Z,131.13
2022-11-26T21:00:24.927Z,132.55
2022-11-26T21:02:55.569Z,132.98
2022-11-26T21:05:24.025Z,129.73
2022-11-26T21:07:52.132Z,133.02
2022-11-26T21:10:25.031Z,130.77
2022-11-26T21:12:53.126Z,138.00
2022-11-26T21:15:23.050Z,129.32
2022-11-26T21:17:51.299Z,133.40
2022-11-26T21:20:19.197Z,135.18
2022-11-26T21:22:47.199Z,131.80
2022-11-26T21:25:16.228Z,124.90
2022-11-26T21:27:44.243Z,123.82
2022-11-26T21:30:13.406Z,120.50
2022-11-26T21:32:43.008Z,131.57
2022-11-26T21:35:11.339Z,128.85
2022-11-26T21:37:39.339Z,125.75
2022-11-26T21:40:08.592Z,133.15
2022-11-26T21:42:36.564Z,130.65
2022-11-26T21:45:05.060Z,129.45
2022-11-26T21:47:33.263Z,132.98
2022-11-26T21:50:02.382Z,137.10
2022-11-26T21:52:30.492Z,136.18
2022-11-26T21:55:03.277Z,137.55
2022-11-26T21:57:32.480Z,127.50
2022-11-26T22:00:00.566Z,127.15
2022-11-26T22:02:28.561Z,130.05
2022-11-26T22:04:56.435Z,138.48
2022-11-26T22:07:26.015Z,139.90
2022-11-26T22:09:53.848Z,126.55
2022-11-26T22:12:21.819Z,129.50
2022-11-26T22:14:49.497Z,146.70
2022-11-26T22:17:17.443Z,150.77
2022-11-26T22:19:45.159Z,142.73
2022-11-26T22:22:13.175Z,151.35
2022-11-26T22:24:42.309Z,144.45
2022-11-26T22:27:10.390Z,139.50
2022-11-26T22:29:38.383Z,122.60
2022-11-26T22:32:07.158Z,128.73
2022-11-26T22:34:34.875Z,140.32
2022-11-26T22:37:02.986Z,134.80
2022-11-26T22:39:31.709Z,128.50
2022-11-26T22:42:01.720Z,134.30
2022-11-26T22:44:29.463Z,142.30
2022-11-26T22:46:57.408Z,135.27
2022-11-26T22:49:25.411Z,148.30
2022-11-26T22:51:53.364Z,137.20
2022-11-26T22:54:21.321Z,133.45
2022-11-26T22:56:49.292Z,144.10
2022-11-26T22:59:18.422Z,131.48
2022-11-26T23:01:46.540Z,128.85
2022-11-26T23:04:14.307Z,81.90
2022-11-26T23:06:42.669Z,127.68
2022-11-26T23:09:13.315Z,120.60
2022-11-26T23:11:43.036Z,97.95
2022-11-26T23:14:12.039Z,49.95
2022-11-26T23:16:43.298Z,70.65
2022-11-26T23:19:14.633Z,70.72
2022-11-26T23:21:44.687Z,73.55
2022-11-26T23:24:13.564Z,71.70
2022-11-26T23:26:41.952Z,78.40
2022-11-26T23:29:11.032Z,79.78
2022-11-26T23:31:42.923Z,76.10
2022-11-26T23:34:11.235Z,75.25
2022-11-26T23:36:39.371Z,74.65
2022-11-26T23:39:10.468Z,71.53
2022-11-26T23:41:38.468Z,70.80
2022-11-26T23:44:06.316Z,71.30
2022-11-26T23:46:36.169Z,60.35
2022-11-26T23:49:05.383Z,71.50
2022-11-26T23:51:34.154Z,69.28
2022-11-26T23:54:01.994Z,75.18
2022-11-26T23:56:31.639Z,74.07
2022-11-26T23:59:01.537Z,55.75
